Pickering, Missouri
Current Conditions -  °F | °C
As of 5:15 AM on Thursday 23 Oct 2014 (Local Time) from KICL Reporting Station
Overcast Overcast  
Wind Chill: 57°   Ceiling: 600
Heat Index: 57°   Visibility: 9mi
Dew Point: 57°   Wind: 9mph
Humidity: 100%   Direction: 180°S
Pressure: 30.06"   Gusts: NA
Location:  40.45°N, 94.84°W
Report Text: KICL 231015Z AUTO 18008KT 9SM BKN006 BKN041 OVC060 14/14 A3006 RMK AO2
Loading
Personal Weather Stations






























Interactive Weather Map
Tropical Storm Tracking
New forecast layout! Learn more

10-Day Weather Forecast

Advertisements
Track Severe Weather on mobile